In Rescue
 
Open Full Screen Window  High Contrast Mode
Wind Gusting 00 knots
05
July 25, 2021 9:32 AM EDT
Weather Information
Wind Direction
  280 °
Wind Speed
  05 kt (6 mph)
Wind Gust
  00 kt (0 mph)
Altimeter
29.92 in
Visibility
10 SM
Temperature
25° C
77° F
Dewpoint
18° C
64° F
Humidity
65%
1hr Rain Fall
00.00 in.
24hr Rain Fall
00.18 in.
Sky Condition
Clear
VFR

METAR KY70 251332Z AUTO 28005KT 10SM CLR 25/18 A2992 RMK AO2 T02490182

FAA Disclaimer: The data displayed is for advisory purposes only and is not to be used for flight planning or operations.